Time;durP1;ratioP1;P1;durP2;ratioP2;P2;SDS_P1;SDS_P2;PMS_P1;PMS_P2;Temp;Humidity;BMP_temperature;BMP_pressure;BME280_temperature;BME280_humidity;BME280_pressure;Samples;Min_cycle;Max_cycle;Signal;HPM_P1;HPM_P2
2022/09/03 00:08:58;;;;;;;0.63;0.45;;;21.00;53.10;;;;;;20679349;28;20026;-72
2022/09/03 00:19:01;;;;;;;1.13;0.52;;;21.00;53.20;;;;;;20679739;28;20053;-73
2022/09/03 00:29:10;;;;;;;0.85;0.40;;;21.00;53.10;;;;;;20681039;28;20041;-72
2022/09/03 00:39:18;;;;;;;0.70;0.40;;;21.00;53.10;;;;;;20673514;28;20501;-74
2022/09/03 00:49:36;;;;;;;1.17;0.50;;;20.90;53.10;;;;;;20697807;28;20037;-73
2022/09/03 00:59:48;;;;;;;0.65;0.40;;;21.00;53.20;;;;;;20690111;28;20510;-75
2022/09/03 01:10:13;;;;;;;0.50;0.30;;;21.00;53.10;;;;;;20701318;28;20041;-73
2022/09/03 01:20:21;;;;;;;0.63;0.20;;;20.90;53.10;;;;;;20668752;28;20128;-72
2022/09/03 01:30:22;;;;;;;0.85;0.35;;;20.90;53.00;;;;;;20966355;23;20046;-74
2022/09/03 01:40:41;;;;;;;1.05;0.35;;;20.90;53.00;;;;;;20535819;28;20027;-72
2022/09/03 01:51:16;;;;;;;0.93;0.40;;;20.90;52.90;;;;;;20556784;28;20044;-72
2022/09/03 02:01:23;;;;;;;0.43;0.30;;;20.90;52.90;;;;;;20538905;28;20038;-72
2022/09/03 02:11:24;;;;;;;1.13;0.40;;;20.90;52.90;;;;;;20505440;28;20126;-72
2022/09/03 02:21:26;;;;;;;1.77;0.47;;;20.90;52.90;;;;;;20548026;28;20109;-72
2022/09/03 02:31:27;;;;;;;0.47;0.30;;;20.80;52.80;;;;;;20515849;28;20345;-73
2022/09/03 02:41:28;;;;;;;0.30;0.28;;;20.90;52.80;;;;;;20483083;28;20027;-72
2022/09/03 02:51:34;;;;;;;0.50;0.30;;;20.80;52.70;;;;;;20508495;28;20046;-72
2022/09/03 03:01:35;;;;;;;0.88;0.40;;;20.80;52.50;;;;;;20518152;28;20097;-72
2022/09/03 03:11:35;;;;;;;0.40;0.32;;;20.80;52.50;;;;;;20559301;28;20035;-73
2022/09/03 03:21:36;;;;;;;0.20;0.20;;;20.80;52.60;;;;;;20489457;28;20125;-72
2022/09/03 03:31:37;;;;;;;0.57;0.32;;;20.80;52.70;;;;;;20563527;28;20046;-73
2022/09/03 03:41:37;;;;;;;0.45;0.25;;;20.80;52.80;;;;;;20527742;28;20074;-73
2022/09/03 03:51:38;;;;;;;0.88;0.35;;;20.80;52.80;;;;;;20516906;28;20042;-72
2022/09/03 04:01:38;;;;;;;1.42;0.50;;;20.80;52.80;;;;;;20516109;28;20031;-72
2022/09/03 04:11:39;;;;;;;0.65;0.35;;;20.70;52.70;;;;;;20519254;28;20114;-72
2022/09/03 04:21:39;;;;;;;0.73;0.32;;;20.70;52.70;;;;;;20534359;28;20031;-71
2022/09/03 04:32:51;;;;;;;0.90;0.30;;;20.70;52.60;;;;;;20513554;28;20125;-71
2022/09/03 04:42:01;;;;;;;0.47;0.40;;;20.70;52.50;;;;;;20563065;28;20403;-73
2022/09/03 04:52:02;;;;;;;0.67;0.37;;;20.70;52.40;;;;;;20554003;28;20039;-73
2022/09/03 05:02:02;;;;;;;0.20;0.10;;;20.70;52.40;;;;;;20536847;28;20067;-72
2022/09/03 05:12:03;;;;;;;0.63;0.40;;;20.70;52.50;;;;;;20560953;28;20130;-72
2022/09/03 05:22:04;;;;;;;0.68;0.43;;;20.70;52.60;;;;;;20535948;28;20555;-72
2022/09/03 05:32:06;;;;;;;0.93;0.50;;;20.70;53.30;;;;;;20536813;28;20062;-72
2022/09/03 05:42:06;;;;;;;0.75;0.40;;;20.60;52.60;;;;;;20529279;28;20054;-74
2022/09/03 05:52:08;;;;;;;0.47;0.45;;;20.60;52.60;;;;;;20481139;28;20039;-72
2022/09/03 06:02:09;;;;;;;1.58;0.30;;;20.60;52.60;;;;;;20529765;28;20401;-71
2022/09/03 06:12:10;;;;;;;0.45;0.40;;;20.60;52.70;;;;;;20562664;28;20046;-73
2022/09/03 06:22:11;;;;;;;0.60;0.40;;;20.60;52.70;;;;;;20511530;28;20027;-67
2022/09/03 06:32:11;;;;;;;0.47;0.38;;;20.60;52.70;;;;;;20557026;28;20189;-72
2022/09/03 06:42:12;;;;;;;0.90;0.50;;;20.60;52.40;;;;;;20551123;28;20068;-76
2022/09/03 06:52:15;;;;;;;2.65;0.68;;;20.60;52.10;;;;;;20541172;28;20075;-71
2022/09/03 07:02:17;;;;;;;0.52;0.38;;;20.60;51.90;;;;;;20519319;28;20492;-75
2022/09/03 07:12:19;;;;;;;2.20;0.65;;;20.60;51.80;;;;;;20527328;28;20570;-72
2022/09/03 07:22:21;;;;;;;2.00;0.77;;;20.60;51.80;;;;;;20548665;28;20455;-79
2022/09/03 07:32:22;;;;;;;0.98;0.45;;;20.60;51.70;;;;;;20533960;28;20363;-78
2022/09/03 07:42:22;;;;;;;0.52;0.35;;;20.60;51.70;;;;;;20529563;28;20043;-78
2022/09/03 07:52:23;;;;;;;0.77;0.60;;;20.60;51.60;;;;;;20507820;28;20063;-81
2022/09/03 08:02:24;;;;;;;1.08;0.40;;;20.50;51.60;;;;;;20530794;28;20110;-79
2022/09/03 08:12:24;;;;;;;4.85;0.70;;;20.60;51.60;;;;;;20527255;28;20027;-80
2022/09/03 08:22:25;;;;;;;0.70;0.50;;;20.60;51.60;;;;;;20569799;28;20027;-80
2022/09/03 08:32:26;;;;;;;1.65;0.55;;;20.60;51.60;;;;;;20552011;28;20046;-79
2022/09/03 08:42:51;;;;;;;1.70;0.55;;;20.60;51.50;;;;;;20531672;28;20062;-80
2022/09/03 08:53:00;;;;;;;0.90;0.50;;;20.70;51.50;;;;;;20543047;28;20437;-80
2022/09/03 09:03:22;;;;;;;1.27;0.60;;;20.70;51.50;;;;;;20525130;28;20121;-80
2022/09/03 09:13:24;;;;;;;1.05;0.40;;;20.70;51.30;;;;;;20544029;28;20051;-79
2022/09/03 09:23:30;;;;;;;0.52;0.52;;;20.70;51.20;;;;;;20552457;28;20032;-74
2022/09/03 09:33:31;;;;;;;4.30;0.63;;;20.70;51.30;;;;;;20525207;28;20529;-79
2022/09/03 09:43:31;;;;;;;1.35;0.70;;;20.80;51.40;;;;;;20545874;28;20043;-73
2022/09/03 09:53:33;;;;;;;1.20;0.55;;;20.70;51.30;;;;;;20549994;28;20038;-72
2022/09/03 10:03:34;;;;;;;0.98;0.50;;;20.70;51.30;;;;;;20538242;28;20032;-72
2022/09/03 10:13:41;;;;;;;2.58;0.73;;;20.80;51.40;;;;;;20529205;28;20038;-73
2022/09/03 10:23:42;;;;;;;19.90;4.63;;;20.80;51.20;;;;;;20515583;28;20026;-72
2022/09/03 10:34:05;;;;;;;9.15;3.72;;;20.90;50.00;;;;;;20554168;28;20041;-71
2022/09/03 10:44:11;;;;;;;4.32;1.98;;;20.90;48.30;;;;;;20567923;28;20038;-71
2022/09/03 10:54:52;;;;;;;3.63;1.48;;;20.90;47.80;;;;;;20557368;28;20429;-71
2022/09/03 11:05:04;;;;;;;3.80;1.48;;;21.00;47.70;;;;;;20530472;28;20046;-75
2022/09/03 11:15:52;;;;;;;2.30;1.15;;;21.00;48.30;;;;;;20542175;28;20043;-77
2022/09/03 11:25:55;;;;;;;4.38;1.40;;;21.00;48.90;;;;;;20563134;28;20046;-74
2022/09/03 11:35:59;;;;;;;3.58;1.13;;;20.90;49.20;;;;;;20503074;28;20066;-74
2022/09/03 11:46:30;;;;;;;1.73;1.00;;;20.90;49.50;;;;;;20498053;28;20038;-75
2022/09/03 11:56:32;;;;;;;1.98;0.70;;;21.00;49.90;;;;;;20506264;28;20493;-76
2022/09/03 12:06:41;;;;;;;1.25;0.60;;;20.90;50.00;;;;;;20554334;28;20097;-73
2022/09/03 12:16:53;;;;;;;3.53;1.00;;;21.00;50.20;;;;;;20550668;28;20042;-84
2022/09/03 12:26:55;;;;;;;2.05;0.98;;;21.00;50.40;;;;;;20543306;28;20039;-82
2022/09/03 12:36:56;;;;;;;1.75;0.88;;;21.00;50.50;;;;;;20549914;28;20031;-82
2022/09/03 12:47:04;;;;;;;0.68;0.55;;;21.00;50.70;;;;;;20512668;28;20142;-84
2022/09/03 12:57:05;;;;;;;1.13;0.50;;;21.00;50.80;;;;;;20522192;28;20118;-79
2022/09/03 13:07:11;;;;;;;1.50;0.45;;;21.10;51.00;;;;;;20544811;28;20501;-83
2022/09/03 13:17:24;;;;;;;0.77;0.70;;;21.10;51.10;;;;;;20548148;28;20035;-85
2022/09/03 13:27:34;;;;;;;4.63;0.47;;;21.00;51.00;;;;;;20523200;28;20038;-78
2022/09/03 13:37:44;;;;;;;0.60;0.50;;;21.10;51.00;;;;;;20557516;28;20035;-79
2022/09/03 13:58:27;;;;;;;2.05;0.47;;;21.10;51.10;;;;;;20553215;28;20247;-80
2022/09/03 14:08:31;;;;;;;0.98;0.60;;;21.20;51.10;;;;;;20553505;28;20046;-78
2022/09/03 14:18:40;;;;;;;0.90;0.40;;;21.20;51.00;;;;;;20536319;28;20118;-77
2022/09/03 14:28:48;;;;;;;0.50;0.45;;;21.20;50.90;;;;;;20509061;28;20504;-76
2022/09/03 14:39:06;;;;;;;0.98;0.60;;;21.30;50.70;;;;;;20520480;28;20126;-78
2022/09/03 14:49:25;;;;;;;1.10;0.52;;;21.40;50.50;;;;;;20534175;28;20426;-76
2022/09/03 15:00:10;;;;;;;1.45;0.60;;;21.50;50.40;;;;;;20512526;28;20023;-77
2022/09/03 15:10:14;;;;;;;0.75;0.40;;;21.60;50.30;;;;;;20515495;28;20089;-77
2022/09/03 15:20:27;;;;;;;0.73;0.50;;;21.70;50.10;;;;;;20507329;28;20074;-82
2022/09/03 15:30:39;;;;;;;0.70;0.45;;;21.90;50.00;;;;;;20508407;28;20049;-78
2022/09/03 15:40:46;;;;;;;3.08;0.93;;;21.90;49.80;;;;;;20533526;28;20034;-78
2022/09/03 15:50:51;;;;;;;1.00;0.70;;;22.00;48.80;;;;;;20558335;28;20066;-76
2022/09/03 16:00:53;;;;;;;1.55;0.90;;;22.00;46.80;;;;;;20536032;28;20228;-79
2022/09/03 16:11:20;;;;;;;3.53;1.10;;;22.00;45.40;;;;;;20535903;28;20050;-76
2022/09/03 16:21:25;;;;;;;0.93;0.73;;;22.00;44.20;;;;;;20525614;28;20035;-75
2022/09/03 16:32:03;;;;;;;1.15;0.70;;;22.00;44.50;;;;;;20561029;28;20150;-72
2022/09/03 16:42:13;;;;;;;1.05;0.77;;;22.00;45.20;;;;;;20538453;28;20043;-73
2022/09/03 16:52:51;;;;;;;2.08;0.85;;;22.00;45.80;;;;;;20524276;28;20053;-75
2022/09/03 17:03:23;;;;;;;3.65;0.95;;;22.00;46.30;;;;;;20516041;28;20046;-72
2022/09/03 17:14:10;;;;;;;1.40;0.63;;;21.90;46.70;;;;;;20551171;28;20051;-75
2022/09/03 17:24:35;;;;;;;0.45;0.43;;;21.90;47.30;;;;;;20535374;28;20133;-74
2022/09/03 17:34:51;;;;;;;1.50;0.50;;;21.80;47.60;;;;;;20517799;28;20122;-73
2022/09/03 17:45:06;;;;;;;1.50;0.70;;;21.80;48.00;;;;;;20556596;28;20047;-74
2022/09/03 17:55:17;;;;;;;0.77;0.50;;;21.70;48.10;;;;;;20538741;28;20058;-74
2022/09/03 18:05:26;;;;;;;1.90;0.70;;;21.70;48.30;;;;;;20518571;28;20027;-72
2022/09/03 18:15:30;;;;;;;1.05;0.50;;;21.60;48.40;;;;;;20518365;28;20125;-71
2022/09/03 20:20:33;;;;;;;0.50;0.50;;;21.40;49.70;;;;;;20557687;28;20038;-74
2022/09/03 20:30:52;;;;;;;1.17;0.50;;;21.40;50.50;;;;;;20542070;28;20049;-75
2022/09/03 20:41:30;;;;;;;1.40;0.88;;;21.30;49.80;;;;;;20520979;28;20035;-74
2022/09/03 20:52:04;;;;;;;0.98;0.50;;;21.40;50.00;;;;;;20556812;28;20074;-75
2022/09/03 21:02:20;;;;;;;1.48;0.50;;;21.40;50.00;;;;;;20542710;28;20046;-74
2022/09/03 21:12:29;;;;;;;0.52;0.43;;;21.40;50.10;;;;;;20542263;28;20049;-75
2022/09/03 21:22:44;;;;;;;1.23;0.60;;;21.40;50.20;;;;;;20537582;28;20036;-74
2022/09/03 21:32:52;;;;;;;;;;;21.30;50.20;;;;;;20542558;28;20178;-77
2022/09/03 21:43:12;;;;;;;0.65;0.47;;;21.30;50.20;;;;;;20510210;28;19995;-75
2022/09/03 21:53:34;;;;;;;2.80;0.80;;;21.30;50.30;;;;;;20558229;28;20080;-75
2022/09/03 22:03:35;;;;;;;0.85;0.40;;;21.20;50.30;;;;;;20548333;28;20034;-74
2022/09/03 22:13:51;;;;;;;1.67;0.70;;;21.30;50.40;;;;;;20567095;28;20043;-76
2022/09/03 22:24:21;;;;;;;1.27;0.63;;;21.30;50.40;;;;;;20535430;28;20027;-75
2022/09/03 22:34:32;;;;;;;2.65;0.55;;;21.20;50.40;;;;;;20515250;28;20437;-74
2022/09/03 22:44:57;;;;;;;2.25;0.73;;;21.30;50.40;;;;;;20505948;28;20031;-74
2022/09/03 22:55:06;;;;;;;0.87;0.60;;;21.20;50.50;;;;;;20515012;28;20698;-75
2022/09/03 23:05:34;;;;;;;1.23;0.52;;;21.30;50.50;;;;;;20521724;28;20031;-75
2022/09/03 23:15:37;;;;;;;1.17;0.70;;;21.20;50.50;;;;;;20506006;28;20093;-74
2022/09/03 23:25:42;;;;;;;1.20;0.60;;;21.20;50.50;;;;;;20494810;28;20039;-74
2022/09/03 23:35:48;;;;;;;0.80;0.70;;;21.20;50.50;;;;;;20511896;28;20039;-75
2022/09/03 23:46:02;;;;;;;2.03;0.70;;;21.20;50.60;;;;;;20518672;28;20399;-74
2022/09/03 23:56:15;;;;;;;1.33;0.50;;;21.20;50.60;;;;;;20538838;28;20047;-74
